createdAt,value
2019-04-30T00:01:42.548Z,39.60
2019-04-30T00:04:25.410Z,41.00
2019-04-30T00:06:55.634Z,36.40
2019-04-30T00:09:25.888Z,38.97
2019-04-30T00:11:57.951Z,37.03
2019-04-30T00:14:32.184Z,41.23
2019-04-30T00:16:56.672Z,41.00
2019-04-30T00:19:26.038Z,39.30
2019-04-30T00:22:00.103Z,37.27
2019-04-30T00:24:27.796Z,37.90
2019-04-30T00:26:57.084Z,37.17
2019-04-30T00:29:30.170Z,39.40
2019-04-30T00:32:04.114Z,40.33
2019-04-30T00:34:30.848Z,38.57
2019-04-30T00:36:59.885Z,35.87
2019-04-30T00:39:28.983Z,37.70
2019-04-30T00:41:58.153Z,38.42
2019-04-30T00:44:28.456Z,36.30
2019-04-30T00:47:04.982Z,38.78
2019-04-30T00:49:34.970Z,39.83
2019-04-30T00:52:05.180Z,38.53
2019-04-30T00:54:35.260Z,42.87
2019-04-30T00:57:07.474Z,37.67
2019-04-30T00:59:35.629Z,43.50
2019-04-30T01:02:30.796Z,41.33
2019-04-30T01:04:58.274Z,42.50
2019-04-30T01:07:29.859Z,41.80
2019-04-30T01:09:59.312Z,46.73
2019-04-30T01:12:33.503Z,44.97
2019-04-30T01:15:01.527Z,48.67
2019-04-30T01:17:30.119Z,45.10
2019-04-30T01:19:59.565Z,48.50
2019-04-30T01:22:32.787Z,47.10
2019-04-30T01:25:02.892Z,49.30
2019-04-30T01:27:31.434Z,54.83
2019-04-30T01:30:02.306Z,46.43
2019-04-30T01:32:31.420Z,54.70
2019-04-30T01:35:02.492Z,51.37
2019-04-30T01:37:32.851Z,52.60
2019-04-30T01:40:03.163Z,52.67
2019-04-30T01:42:33.652Z,50.77
2019-04-30T01:45:03.151Z,53.83
2019-04-30T01:47:32.386Z,54.50
2019-04-30T01:50:04.915Z,56.28
2019-04-30T01:52:50.296Z,52.30
2019-04-30T01:55:21.448Z,53.83
2019-04-30T01:58:08.734Z,54.67
2019-04-30T02:00:43.512Z,56.33
2019-04-30T02:03:13.411Z,58.00
2019-04-30T02:05:42.583Z,56.90
2019-04-30T02:08:13.208Z,62.43
2019-04-30T02:10:42.552Z,62.00
2019-04-30T02:13:11.826Z,62.48
2019-04-30T02:15:41.619Z,65.00
2019-04-30T02:18:11.469Z,59.30
2019-04-30T02:20:44.769Z,62.15
2019-04-30T02:23:13.880Z,59.43
2019-04-30T02:25:43.057Z,64.70
2019-04-30T02:28:15.548Z,59.60
2019-04-30T02:30:44.929Z,65.93
2019-04-30T02:33:14.055Z,63.13
2019-04-30T02:36:00.425Z,65.95
2019-04-30T02:38:34.708Z,65.00
2019-04-30T02:41:04.286Z,63.80
2019-04-30T02:43:34.905Z,66.73
2019-04-30T02:46:05.696Z,57.57
2019-04-30T02:48:39.909Z,64.12
2019-04-30T02:51:13.574Z,67.40
2019-04-30T02:54:26.578Z,62.55
2019-04-30T02:57:11.296Z,64.53
2019-04-30T02:59:59.707Z,65.27
2019-04-30T03:02:29.358Z,64.97
2019-04-30T03:05:00.221Z,64.10
2019-04-30T03:07:30.028Z,64.47
2019-04-30T03:09:59.839Z,63.70
2019-04-30T03:12:30.629Z,68.17
2019-04-30T03:15:01.264Z,64.10
2019-04-30T03:18:00.621Z,67.60
2019-04-30T03:21:03.753Z,65.03
2019-04-30T03:23:32.917Z,62.67
2019-04-30T03:26:02.067Z,63.83
2019-04-30T03:28:31.930Z,66.27
2019-04-30T03:31:04.547Z,66.33
2019-04-30T03:33:33.036Z,60.43
2019-04-30T03:36:04.454Z,65.15
2019-04-30T03:38:33.948Z,66.00
2019-04-30T03:41:03.476Z,68.77
2019-04-30T03:43:32.666Z,69.97
2019-04-30T03:46:02.801Z,62.30
2019-04-30T03:48:32.542Z,66.20
2019-04-30T03:51:01.605Z,69.77
2019-04-30T03:53:31.334Z,70.00
2019-04-30T03:56:01.411Z,71.93
2019-04-30T03:58:30.809Z,68.10
2019-04-30T04:01:12.713Z,71.83
2019-04-30T04:04:00.850Z,68.13
2019-04-30T04:06:36.096Z,67.93
2019-04-30T04:09:12.728Z,67.12
2019-04-30T04:11:43.212Z,65.25
2019-04-30T04:14:12.272Z,69.15
2019-04-30T04:16:41.488Z,65.97
2019-04-30T04:19:10.993Z,63.53
2019-04-30T04:21:40.260Z,70.10
2019-04-30T04:24:10.645Z,68.93
2019-04-30T04:26:43.320Z,68.23
2019-04-30T04:29:12.493Z,68.40
2019-04-30T04:31:42.869Z,67.20
2019-04-30T04:34:11.958Z,71.07
2019-04-30T04:36:43.356Z,64.27
2019-04-30T04:39:13.871Z,59.77
2019-04-30T04:41:44.297Z,61.40
2019-04-30T04:44:13.738Z,64.65
2019-04-30T04:46:42.925Z,62.23
2019-04-30T04:49:12.116Z,64.83
2019-04-30T04:51:42.473Z,60.90
2019-04-30T04:54:12.236Z,61.60
2019-04-30T04:56:42.464Z,59.03
2019-04-30T04:59:11.586Z,61.40
2019-04-30T05:01:40.800Z,60.13
2019-04-30T05:04:11.858Z,59.15
2019-04-30T05:06:40.792Z,59.70
2019-04-30T05:09:10.401Z,59.23
2019-04-30T05:11:39.647Z,56.97
2019-04-30T05:14:10.966Z,65.00
2019-04-30T05:16:40.299Z,61.73
2019-04-30T05:19:12.786Z,62.20
2019-04-30T05:24:18.913Z,59.23
2019-04-30T05:26:48.949Z,60.90
2019-04-30T05:29:19.255Z,57.10
2019-04-30T05:31:48.687Z,59.77
2019-04-30T05:34:18.971Z,60.13
2019-04-30T05:36:48.988Z,60.47
2019-04-30T05:39:19.399Z,58.80
2019-04-30T05:41:49.192Z,56.60
2019-04-30T05:44:21.145Z,60.60
2019-04-30T05:46:50.661Z,57.03
2019-04-30T05:49:20.493Z,59.00
2019-04-30T05:51:55.346Z,61.57
2019-04-30T05:54:21.292Z,58.50
2019-04-30T05:56:52.214Z,58.83
2019-04-30T05:59:21.649Z,58.90
2019-04-30T06:04:26.216Z,67.03
2019-04-30T06:06:58.892Z,59.53
2019-04-30T06:09:43.962Z,61.77
2019-04-30T06:12:22.349Z,61.50
2019-04-30T06:15:11.545Z,59.20
2019-04-30T06:17:40.604Z,59.97
2019-04-30T06:20:18.257Z,57.80
2019-04-30T06:22:42.087Z,59.30
2019-04-30T06:25:11.308Z,54.77
2019-04-30T06:27:40.775Z,59.17
2019-04-30T06:30:12.109Z,58.10
2019-04-30T06:32:41.812Z,59.50
2019-04-30T06:35:11.932Z,61.90
2019-04-30T06:37:41.380Z,63.80
2019-04-30T06:40:11.741Z,55.28
2019-04-30T06:42:41.644Z,57.60
2019-04-30T06:45:11.418Z,53.70
2019-04-30T06:47:40.988Z,54.77
2019-04-30T06:50:10.348Z,53.33
2019-04-30T06:52:39.498Z,58.37
2019-04-30T06:55:09.430Z,51.60
2019-04-30T06:57:39.115Z,53.70
2019-04-30T07:00:09.993Z,50.13
2019-04-30T07:02:39.653Z,43.70
2019-04-30T07:05:10.229Z,45.63
2019-04-30T07:07:42.618Z,45.77
2019-04-30T07:10:24.824Z,51.07
2019-04-30T07:12:58.857Z,55.37
2019-04-30T07:15:29.566Z,52.08
2019-04-30T07:18:00.127Z,48.40
2019-04-30T07:20:29.298Z,43.35
2019-04-30T07:23:02.351Z,44.93
2019-04-30T07:25:32.890Z,49.42
2019-04-30T07:28:02.028Z,45.87
2019-04-30T07:30:31.117Z,43.83
2019-04-30T07:33:01.204Z,46.77
2019-04-30T07:35:30.414Z,50.30
2019-04-30T07:38:04.555Z,48.40
2019-04-30T07:40:30.780Z,42.50
2019-04-30T07:43:00.498Z,45.93
2019-04-30T07:45:31.969Z,42.87
2019-04-30T07:48:01.117Z,53.30
2019-04-30T07:50:31.495Z,45.97
2019-04-30T07:53:05.839Z,39.13
2019-04-30T07:55:32.515Z,44.40
2019-04-30T07:58:01.580Z,47.50
2019-04-30T08:00:31.724Z,39.40
2019-04-30T08:03:10.432Z,39.03
2019-04-30T08:05:42.201Z,38.40
2019-04-30T08:08:20.770Z,39.33
2019-04-30T08:10:42.785Z,39.43
2019-04-30T08:13:15.125Z,37.93
2019-04-30T08:15:44.121Z,38.73
2019-04-30T08:18:30.080Z,39.33
2019-04-30T08:21:00.959Z,38.83
2019-04-30T08:23:34.806Z,43.43
2019-04-30T08:26:04.657Z,42.67
2019-04-30T08:28:34.154Z,37.93
2019-04-30T08:31:03.833Z,40.77
2019-04-30T08:33:33.718Z,38.77
2019-04-30T08:36:34.755Z,39.07
2019-04-30T08:39:05.519Z,35.63
2019-04-30T08:41:34.713Z,39.80
2019-04-30T08:44:03.919Z,36.13
2019-04-30T08:46:33.052Z,32.57
2019-04-30T08:49:02.256Z,37.67
2019-04-30T08:51:33.041Z,33.47
2019-04-30T08:54:02.238Z,36.33
2019-04-30T08:56:32.396Z,33.47
2019-04-30T08:59:01.551Z,30.93
2019-04-30T09:01:31.052Z,32.17
2019-04-30T09:04:00.249Z,34.40
2019-04-30T09:06:30.386Z,38.60
2019-04-30T09:09:11.037Z,37.37
2019-04-30T09:11:51.701Z,32.65
2019-04-30T09:14:14.444Z,31.33
2019-04-30T09:16:44.197Z,32.53
2019-04-30T09:19:13.472Z,32.83
2019-04-30T09:21:43.919Z,28.97
2019-04-30T09:24:13.061Z,32.40
2019-04-30T09:26:42.384Z,30.90
2019-04-30T09:29:12.304Z,35.30
2019-04-30T09:31:41.740Z,37.67
2019-04-30T09:34:17.548Z,41.60
2019-04-30T09:36:42.261Z,41.50
2019-04-30T09:39:11.609Z,33.57
2019-04-30T09:41:41.301Z,37.93
2019-04-30T09:44:10.556Z,32.80
2019-04-30T09:46:40.398Z,37.07
2019-04-30T09:49:10.007Z,34.17
2019-04-30T09:51:39.638Z,39.13
2019-04-30T09:54:11.822Z,32.93
2019-04-30T09:56:40.043Z,32.27
2019-04-30T09:59:09.207Z,31.47
2019-04-30T10:01:38.509Z,32.53
2019-04-30T10:04:09.973Z,35.40
2019-04-30T10:06:40.418Z,33.47
2019-04-30T10:09:12.852Z,32.58
2019-04-30T10:11:53.645Z,32.80
2019-04-30T10:14:22.992Z,34.97
2019-04-30T10:17:23.146Z,40.90
2019-04-30T10:19:53.947Z,34.63
2019-04-30T10:22:24.587Z,34.90
2019-04-30T10:24:53.723Z,33.47
2019-04-30T10:27:24.442Z,34.67
2019-04-30T10:29:54.369Z,30.30
2019-04-30T10:32:24.039Z,33.87
2019-04-30T10:34:53.618Z,32.47
2019-04-30T10:37:23.716Z,33.27
2019-04-30T10:39:53.436Z,31.00
2019-04-30T10:42:22.936Z,30.60
2019-04-30T10:45:07.280Z,28.53
2019-04-30T10:47:51.723Z,27.83
2019-04-30T10:50:22.524Z,30.37
2019-04-30T10:52:52.004Z,28.40
2019-04-30T10:55:21.207Z,29.90
2019-04-30T10:57:50.503Z,28.67
2019-04-30T11:02:59.324Z,31.50
2019-04-30T11:05:29.276Z,30.37
2019-04-30T11:07:59.386Z,29.93
2019-04-30T11:10:30.141Z,23.70
2019-04-30T11:12:59.497Z,25.40
2019-04-30T11:15:29.215Z,25.23
2019-04-30T11:17:59.662Z,31.17
2019-04-30T11:20:29.865Z,27.87
2019-04-30T11:22:59.398Z,27.97
2019-04-30T11:25:31.335Z,25.23
2019-04-30T11:28:00.365Z,27.23
2019-04-30T11:30:33.186Z,22.40
2019-04-30T11:33:02.691Z,25.03
2019-04-30T11:35:32.169Z,25.13
2019-04-30T11:38:02.014Z,25.33
2019-04-30T11:40:37.114Z,23.90
2019-04-30T11:43:02.425Z,24.90
2019-04-30T11:46:14.880Z,23.80
2019-04-30T11:48:43.989Z,26.57
2019-04-30T11:51:13.500Z,26.17
2019-04-30T11:53:42.620Z,27.32
2019-04-30T11:56:12.095Z,24.30
2019-04-30T11:58:41.262Z,22.47
2019-04-30T12:01:14.745Z,26.57
2019-04-30T12:03:44.920Z,26.17
2019-04-30T12:06:14.068Z,22.60
2019-04-30T12:09:03.508Z,30.03
2019-04-30T12:11:35.843Z,27.63
2019-04-30T12:14:09.106Z,31.90
2019-04-30T12:16:39.592Z,26.33
2019-04-30T12:19:09.101Z,25.33
2019-04-30T12:21:38.799Z,23.30
2019-04-30T12:24:09.756Z,26.17
2019-04-30T12:26:39.178Z,26.57
2019-04-30T12:29:11.083Z,23.87
2019-04-30T12:31:40.996Z,22.50
2019-04-30T12:34:10.167Z,24.47
2019-04-30T12:36:39.332Z,29.97
2019-04-30T12:39:09.147Z,29.50
2019-04-30T12:41:40.624Z,25.43
2019-04-30T12:44:09.920Z,22.33
2019-04-30T12:46:39.049Z,29.90
2019-04-30T12:49:12.641Z,22.07
2019-04-30T12:52:08.735Z,20.10
2019-04-30T12:54:47.837Z,27.23
2019-04-30T12:57:29.337Z,31.80
2019-04-30T13:00:00.047Z,22.43
2019-04-30T13:02:29.349Z,28.20
2019-04-30T13:05:00.439Z,25.93
2019-04-30T13:07:33.144Z,36.50
2019-04-30T13:10:03.395Z,33.17
2019-04-30T13:12:33.444Z,27.85
2019-04-30T13:15:18.923Z,27.10
2019-04-30T13:17:50.255Z,20.67
2019-04-30T13:20:23.689Z,21.55
2019-04-30T13:22:51.864Z,22.03
2019-04-30T13:25:32.469Z,30.30
2019-04-30T13:27:57.829Z,35.60
2019-04-30T13:30:30.037Z,28.60
2019-04-30T13:33:09.450Z,24.40
2019-04-30T13:35:39.019Z,28.93
2019-04-30T13:38:28.725Z,25.93
2019-04-30T13:41:13.418Z,25.72
2019-04-30T13:44:00.994Z,30.70
2019-04-30T13:46:30.240Z,32.13
2019-04-30T13:48:59.629Z,30.60
2019-04-30T13:51:29.283Z,34.63
2019-04-30T13:53:58.628Z,36.80
2019-04-30T13:56:28.671Z,41.93
2019-04-30T13:58:58.414Z,31.33
2019-04-30T14:01:29.390Z,32.60
2019-04-30T14:04:30.149Z,34.00
2019-04-30T14:07:16.419Z,33.80
2019-04-30T14:09:45.626Z,33.60
2019-04-30T14:12:14.712Z,33.07
2019-04-30T14:14:49.345Z,30.82
2019-04-30T14:17:20.528Z,39.40
2019-04-30T14:19:49.580Z,29.73
2019-04-30T14:22:19.053Z,27.57
2019-04-30T14:24:48.262Z,30.20
2019-04-30T14:27:17.396Z,29.13
2019-04-30T14:29:47.157Z,44.57
2019-04-30T14:32:18.574Z,31.57
2019-04-30T14:34:50.366Z,31.17
2019-04-30T14:37:18.769Z,34.13
2019-04-30T14:39:48.350Z,37.47
2019-04-30T14:42:20.035Z,33.15
2019-04-30T14:44:50.820Z,33.17
2019-04-30T14:47:40.950Z,31.73
2019-04-30T14:50:12.908Z,29.95
2019-04-30T14:52:49.857Z,32.00
2019-04-30T14:55:29.460Z,34.00
2019-04-30T14:58:20.530Z,32.65
2019-04-30T15:01:05.974Z,34.20
2019-04-30T15:03:35.257Z,36.83
2019-04-30T15:06:05.407Z,31.70
2019-04-30T15:08:34.468Z,35.37
2019-04-30T15:11:04.144Z,31.50
2019-04-30T15:13:33.445Z,31.10
2019-04-30T15:16:02.581Z,36.13
2019-04-30T15:18:32.049Z,33.78
2019-04-30T15:21:01.452Z,32.87
2019-04-30T15:24:01.560Z,36.67
2019-04-30T15:26:31.084Z,40.93
2019-04-30T15:29:00.535Z,37.73
2019-04-30T15:31:29.999Z,39.20
2019-04-30T15:34:11.305Z,38.40
2019-04-30T15:36:40.784Z,34.67
2019-04-30T15:39:16.560Z,36.77
2019-04-30T15:41:45.879Z,34.60
2019-04-30T15:44:15.436Z,32.30
2019-04-30T15:46:44.589Z,35.52
2019-04-30T15:49:14.140Z,36.83
2019-04-30T15:51:43.568Z,36.67
2019-04-30T15:54:13.594Z,38.77
2019-04-30T15:56:43.864Z,39.20
2019-04-30T15:59:31.097Z,39.03
2019-04-30T16:02:04.576Z,36.73
2019-04-30T16:04:43.205Z,35.63
2019-04-30T16:07:12.628Z,39.97
2019-04-30T16:09:52.697Z,36.47
2019-04-30T16:12:44.128Z,37.87
2019-04-30T16:15:13.382Z,41.70
2019-04-30T16:17:44.876Z,38.03
2019-04-30T16:20:14.175Z,38.67
2019-04-30T16:22:44.280Z,38.47
2019-04-30T16:25:13.595Z,44.13
2019-04-30T16:27:43.392Z,45.03
2019-04-30T16:30:12.708Z,39.50
2019-04-30T16:32:41.955Z,41.33
2019-04-30T16:35:11.300Z,42.37
2019-04-30T16:37:40.716Z,42.73
2019-04-30T16:40:11.401Z,39.20
2019-04-30T16:42:46.424Z,36.40
2019-04-30T16:45:16.193Z,41.23
2019-04-30T16:47:45.584Z,40.53
2019-04-30T16:50:15.400Z,40.93
2019-04-30T16:52:44.517Z,41.73
2019-04-30T16:55:13.715Z,41.80
2019-04-30T16:57:43.502Z,41.13
2019-04-30T17:00:15.559Z,43.80
2019-04-30T17:02:49.291Z,40.03
2019-04-30T17:05:39.488Z,46.00
2019-04-30T17:08:21.271Z,43.30
2019-04-30T17:11:08.676Z,45.10
2019-04-30T17:13:56.876Z,44.33
2019-04-30T17:16:30.248Z,41.67
2019-04-30T17:18:59.742Z,42.90
2019-04-30T17:21:29.670Z,43.50
2019-04-30T17:23:59.247Z,43.57
2019-04-30T17:26:31.064Z,46.10
2019-04-30T17:29:00.612Z,44.73
2019-04-30T17:31:30.413Z,48.00
2019-04-30T17:33:59.642Z,46.87
2019-04-30T17:36:31.437Z,52.33
2019-04-30T17:39:00.761Z,43.67
2019-04-30T17:41:30.077Z,45.57
2019-04-30T17:44:00.014Z,46.47
2019-04-30T17:46:29.248Z,44.93
2019-04-30T17:48:59.249Z,43.03
2019-04-30T17:51:28.549Z,44.60
2019-04-30T17:54:13.815Z,43.83
2019-04-30T17:56:44.472Z,42.43
2019-04-30T17:59:14.263Z,44.33
2019-04-30T18:01:49.501Z,44.03
2019-04-30T18:04:21.885Z,40.60
2019-04-30T18:06:50.614Z,42.63
2019-04-30T18:09:22.180Z,44.80
2019-04-30T18:11:51.515Z,45.60
2019-04-30T18:14:21.186Z,43.33
2019-04-30T18:16:51.048Z,43.57
2019-04-30T18:19:36.124Z,46.03
2019-04-30T18:22:13.151Z,43.60
2019-04-30T18:24:54.504Z,47.97
2019-04-30T18:27:42.383Z,40.80
2019-04-30T18:30:01.517Z,43.60
2019-04-30T18:32:31.171Z,42.13
2019-04-30T18:35:00.350Z,45.30
2019-04-30T18:37:30.026Z,47.27
2019-04-30T18:40:00.167Z,44.47
2019-04-30T18:42:30.540Z,43.47
2019-04-30T18:45:01.021Z,44.67
2019-04-30T18:47:30.471Z,41.57
2019-04-30T18:50:00.196Z,49.83
2019-04-30T18:52:29.645Z,43.43
2019-04-30T18:54:59.535Z,37.83
2019-04-30T18:57:29.016Z,49.30
2019-04-30T19:00:01.568Z,41.13
2019-04-30T19:02:31.100Z,45.40
2019-04-30T19:05:00.686Z,44.70
2019-04-30T19:07:38.623Z,46.00
2019-04-30T19:10:21.421Z,44.13
2019-04-30T19:12:56.343Z,41.23
2019-04-30T19:16:14.869Z,42.10
2019-04-30T19:18:44.615Z,42.77
2019-04-30T19:21:13.871Z,46.23
2019-04-30T19:23:42.962Z,42.63
2019-04-30T19:26:12.630Z,42.13
2019-04-30T19:28:41.871Z,49.55
2019-04-30T19:31:12.645Z,41.40
2019-04-30T19:33:41.892Z,42.63
2019-04-30T19:36:11.599Z,42.45
2019-04-30T19:38:40.707Z,45.10
2019-04-30T19:41:10.894Z,44.38
2019-04-30T19:43:44.714Z,45.23
2019-04-30T19:46:13.945Z,43.63
2019-04-30T19:48:43.525Z,47.10
2019-04-30T19:51:12.751Z,44.60
2019-04-30T19:53:42.228Z,41.40
2019-04-30T19:56:11.586Z,46.43
2019-04-30T19:58:54.394Z,46.17
2019-04-30T20:01:11.840Z,46.00
2019-04-30T20:03:41.337Z,45.20
2019-04-30T20:06:10.758Z,53.73
2019-04-30T20:08:40.785Z,49.87
2019-04-30T20:11:10.976Z,46.18
2019-04-30T20:13:40.515Z,48.17
2019-04-30T20:16:10.984Z,43.37
2019-04-30T20:18:40.239Z,48.37
2019-04-30T20:21:13.949Z,43.00
2019-04-30T20:23:43.909Z,45.37
2019-04-30T20:26:13.317Z,44.67
2019-04-30T20:28:42.829Z,51.57
2019-04-30T20:31:12.973Z,45.37
2019-04-30T20:33:42.006Z,47.67
2019-04-30T20:36:11.035Z,50.57
2019-04-30T20:38:47.412Z,51.50
2019-04-30T20:41:18.578Z,48.63
2019-04-30T20:43:49.364Z,47.17
2019-04-30T20:46:31.130Z,45.63
2019-04-30T20:48:49.213Z,46.00
2019-04-30T20:51:19.741Z,50.40
2019-04-30T20:53:49.935Z,47.90
2019-04-30T20:56:19.374Z,46.33
2019-04-30T20:58:55.656Z,48.23
2019-04-30T21:01:19.480Z,48.97
2019-04-30T21:03:48.569Z,50.17
2019-04-30T21:06:33.616Z,52.80
2019-04-30T21:09:02.934Z,52.77
2019-04-30T21:11:32.598Z,52.67
2019-04-30T21:14:01.775Z,52.80
2019-04-30T21:16:31.190Z,52.53
2019-04-30T21:19:02.384Z,51.70
2019-04-30T21:21:34.660Z,55.33
2019-04-30T21:24:10.614Z,49.80
2019-04-30T21:26:40.227Z,51.92
2019-04-30T21:29:13.190Z,59.27
2019-04-30T21:31:59.541Z,56.50
2019-04-30T21:34:57.163Z,50.60
2019-04-30T21:37:26.532Z,50.27
2019-04-30T21:39:58.198Z,55.57
2019-04-30T21:42:27.372Z,51.20
2019-04-30T21:44:57.336Z,57.45
2019-04-30T21:47:27.448Z,58.23
2019-04-30T21:49:56.589Z,54.27
2019-04-30T21:52:26.848Z,53.93
2019-04-30T21:54:57.168Z,59.83
2019-04-30T21:57:26.880Z,48.40
2019-04-30T21:59:58.836Z,59.30
2019-04-30T22:02:28.451Z,52.58
2019-04-30T22:04:58.160Z,55.20
2019-04-30T22:07:29.348Z,54.77
2019-04-30T22:09:59.020Z,56.83
2019-04-30T22:12:30.995Z,60.47
2019-04-30T22:14:59.836Z,53.80
2019-04-30T22:17:29.332Z,54.10
2019-04-30T22:20:00.301Z,49.27
2019-04-30T22:22:29.752Z,52.73
2019-04-30T22:24:59.738Z,52.77
2019-04-30T22:27:28.928Z,53.10
2019-04-30T22:29:58.196Z,58.03
2019-04-30T22:32:28.068Z,56.37
2019-04-30T22:35:11.305Z,56.15
2019-04-30T22:37:41.088Z,53.52
2019-04-30T22:40:10.373Z,57.10
2019-04-30T22:42:42.207Z,54.83
2019-04-30T22:45:25.112Z,56.55
2019-04-30T22:47:54.985Z,55.77
2019-04-30T22:50:24.217Z,58.77
2019-04-30T22:52:53.316Z,51.80
2019-04-30T22:55:22.776Z,49.90
2019-04-30T22:57:52.556Z,50.90
2019-04-30T23:00:40.984Z,56.67
2019-04-30T23:03:16.711Z,53.83
2019-04-30T23:05:46.952Z,57.47
2019-04-30T23:08:16.449Z,52.20
2019-04-30T23:10:45.840Z,55.47
2019-04-30T23:13:15.180Z,58.40
2019-04-30T23:15:44.766Z,56.83
2019-04-30T23:18:14.152Z,62.75
2019-04-30T23:20:43.420Z,59.77
2019-04-30T23:23:13.596Z,55.33
2019-04-30T23:25:42.746Z,60.30
2019-04-30T23:28:12.476Z,55.43
2019-04-30T23:30:42.013Z,56.67
2019-04-30T23:33:11.220Z,55.25
2019-04-30T23:35:41.180Z,51.37
2019-04-30T23:38:10.428Z,52.27
2019-04-30T23:40:51.153Z,53.05
2019-04-30T23:43:20.802Z,52.87
2019-04-30T23:45:50.441Z,55.60
2019-04-30T23:48:19.545Z,53.10
2019-04-30T23:50:48.996Z,57.08
2019-04-30T23:53:21.798Z,57.43
2019-04-30T23:55:50.903Z,55.13
2019-04-30T23:58:21.723Z,59.95
